Malaysia Virtual Airlines Airport Information Service

Johore Bharu / Senai

ICAO: WMKJ Country: Malaysia
Latitude: 1.64131 Longitude: 103.67
Latest Arrival : OD665 (ZGGG-WMKJ) Latest Departure : FY2348 (WMKJ-WMKC)


WX CaptureLIVE
Data provided by noaa.gov | Fetched at 06:10:40

METAR : WMKJ 290500Z VRB09KT 9999 FEW018 32/23 Q1007

TAF : WMKJ 290500Z 2906/3006 27006KT 9999 FEW018 TEMPO 2906/2909 30008G20KT


Runway Data for WMKJ
Data provided by openaviationdata.com

Runway ID Mag Var Hdg Length Elevation Surface ILS Freq ILS Id ILS Slope
16 0 159° 11119 ft 121 ft Asphalt 109.9 IJB 3
34 0 339° 11119 ft 121 ft Asphalt -- -- --

Johore Bharu / Senai, Malaysia
Use only for reference purposes



Not for navigational purposes.